sensor_id;sensor_type;location;lat;lon;timestamp;P1;durP1;ratioP1;P2;durP2;ratioP2
29294;SDS011;16305;48.566;8.846;2023-03-23T00:01:06;3.03;;;2.20;;
29294;SDS011;16305;48.566;8.846;2023-03-23T00:03:37;3.70;;;2.30;;
29294;SDS011;16305;48.566;8.846;2023-03-23T00:06:04;4.30;;;2.33;;
29294;SDS011;16305;48.566;8.846;2023-03-23T00:08:32;2.73;;;2.07;;
29294;SDS011;16305;48.566;8.846;2023-03-23T00:11:10;3.37;;;1.80;;
29294;SDS011;16305;48.566;8.846;2023-03-23T00:13:39;2.30;;;2.00;;
29294;SDS011;16305;48.566;8.846;2023-03-23T00:16:06;2.60;;;2.03;;
29294;SDS011;16305;48.566;8.846;2023-03-23T00:18:43;3.90;;;2.00;;
29294;SDS011;16305;48.566;8.846;2023-03-23T00:21:10;6.40;;;2.27;;
29294;SDS011;16305;48.566;8.846;2023-03-23T00:23:36;5.93;;;2.20;;
29294;SDS011;16305;48.566;8.846;2023-03-23T00:26:03;3.03;;;1.80;;
29294;SDS011;16305;48.566;8.846;2023-03-23T00:28:28;3.87;;;2.07;;
29294;SDS011;16305;48.566;8.846;2023-03-23T00:31:04;4.00;;;2.20;;
29294;SDS011;16305;48.566;8.846;2023-03-23T00:33:32;4.00;;;2.00;;
29294;SDS011;16305;48.566;8.846;2023-03-23T00:36:03;4.50;;;2.10;;
29294;SDS011;16305;48.566;8.846;2023-03-23T00:38:29;2.77;;;2.07;;
29294;SDS011;16305;48.566;8.846;2023-03-23T00:40:56;4.87;;;2.20;;
29294;SDS011;16305;48.566;8.846;2023-03-23T00:43:22;2.80;;;1.90;;
29294;SDS011;16305;48.566;8.846;2023-03-23T00:45:49;3.63;;;2.43;;
29294;SDS011;16305;48.566;8.846;2023-03-23T00:48:17;2.30;;;2.10;;
29294;SDS011;16305;48.566;8.846;2023-03-23T00:50:47;4.37;;;2.00;;
29294;SDS011;16305;48.566;8.846;2023-03-23T00:53:13;2.37;;;2.07;;
29294;SDS011;16305;48.566;8.846;2023-03-23T00:55:41;4.20;;;2.97;;
29294;SDS011;16305;48.566;8.846;2023-03-23T00:58:10;5.43;;;3.73;;
29294;SDS011;16305;48.566;8.846;2023-03-23T01:00:36;4.40;;;2.97;;
29294;SDS011;16305;48.566;8.846;2023-03-23T01:03:02;3.27;;;2.53;;
29294;SDS011;16305;48.566;8.846;2023-03-23T01:05:28;2.50;;;1.97;;
29294;SDS011;16305;48.566;8.846;2023-03-23T01:07:57;2.10;;;1.90;;
29294;SDS011;16305;48.566;8.846;2023-03-23T01:10:23;2.30;;;2.10;;
29294;SDS011;16305;48.566;8.846;2023-03-23T01:12:51;3.03;;;2.10;;
29294;SDS011;16305;48.566;8.846;2023-03-23T01:15:18;2.90;;;2.03;;
29294;SDS011;16305;48.566;8.846;2023-03-23T01:17:44;2.03;;;1.83;;
29294;SDS011;16305;48.566;8.846;2023-03-23T01:20:11;2.77;;;2.20;;
29294;SDS011;16305;48.566;8.846;2023-03-23T01:22:38;3.20;;;2.30;;
29294;SDS011;16305;48.566;8.846;2023-03-23T01:25:04;3.37;;;2.40;;
29294;SDS011;16305;48.566;8.846;2023-03-23T01:27:31;5.93;;;2.40;;
29294;SDS011;16305;48.566;8.846;2023-03-23T01:29:56;2.93;;;2.50;;
29294;SDS011;16305;48.566;8.846;2023-03-23T01:32:22;3.53;;;2.53;;
29294;SDS011;16305;48.566;8.846;2023-03-23T01:34:47;3.67;;;2.20;;
29294;SDS011;16305;48.566;8.846;2023-03-23T01:37:13;4.20;;;2.60;;
29294;SDS011;16305;48.566;8.846;2023-03-23T01:39:40;4.43;;;2.67;;
29294;SDS011;16305;48.566;8.846;2023-03-23T01:42:08;3.53;;;2.80;;
29294;SDS011;16305;48.566;8.846;2023-03-23T01:47:00;5.20;;;3.07;;
29294;SDS011;16305;48.566;8.846;2023-03-23T01:49:36;4.40;;;2.80;;
29294;SDS011;16305;48.566;8.846;2023-03-23T01:52:06;3.70;;;2.97;;
29294;SDS011;16305;48.566;8.846;2023-03-23T01:54:41;5.33;;;2.93;;
29294;SDS011;16305;48.566;8.846;2023-03-23T01:57:11;6.13;;;2.50;;
29294;SDS011;16305;48.566;8.846;2023-03-23T01:59:40;4.97;;;2.80;;
29294;SDS011;16305;48.566;8.846;2023-03-23T02:02:10;5.63;;;2.70;;
29294;SDS011;16305;48.566;8.846;2023-03-23T02:04:36;2.97;;;2.67;;
29294;SDS011;16305;48.566;8.846;2023-03-23T02:07:02;3.13;;;2.77;;
29294;SDS011;16305;48.566;8.846;2023-03-23T02:09:28;3.70;;;2.23;;
29294;SDS011;16305;48.566;8.846;2023-03-23T02:11:54;3.40;;;2.40;;
29294;SDS011;16305;48.566;8.846;2023-03-23T02:14:21;4.27;;;2.50;;
29294;SDS011;16305;48.566;8.846;2023-03-23T02:27:18;2.93;;;2.30;;
29294;SDS011;16305;48.566;8.846;2023-03-23T02:38:53;3.30;;;2.57;;
29294;SDS011;16305;48.566;8.846;2023-03-23T02:41:21;3.70;;;2.50;;
29294;SDS011;16305;48.566;8.846;2023-03-23T02:43:51;3.83;;;2.27;;
29294;SDS011;16305;48.566;8.846;2023-03-23T02:46:18;2.87;;;2.43;;
29294;SDS011;16305;48.566;8.846;2023-03-23T02:48:45;3.83;;;2.40;;
29294;SDS011;16305;48.566;8.846;2023-03-23T02:51:15;3.57;;;2.77;;
29294;SDS011;16305;48.566;8.846;2023-03-23T02:53:44;3.23;;;2.67;;
29294;SDS011;16305;48.566;8.846;2023-03-23T02:56:11;3.93;;;2.60;;
29294;SDS011;16305;48.566;8.846;2023-03-23T02:58:39;4.00;;;2.63;;
29294;SDS011;16305;48.566;8.846;2023-03-23T03:01:14;5.87;;;2.43;;
29294;SDS011;16305;48.566;8.846;2023-03-23T03:03:51;2.13;;;1.93;;
29294;SDS011;16305;48.566;8.846;2023-03-23T03:06:27;3.57;;;2.33;;
29294;SDS011;16305;48.566;8.846;2023-03-23T03:09:26;2.97;;;2.33;;
29294;SDS011;16305;48.566;8.846;2023-03-23T03:12:05;3.47;;;2.50;;
29294;SDS011;16305;48.566;8.846;2023-03-23T03:14:44;3.07;;;2.50;;
29294;SDS011;16305;48.566;8.846;2023-03-23T03:17:28;2.73;;;2.53;;
29294;SDS011;16305;48.566;8.846;2023-03-23T03:19:56;3.17;;;2.70;;
29294;SDS011;16305;48.566;8.846;2023-03-23T03:22:29;2.73;;;2.33;;
29294;SDS011;16305;48.566;8.846;2023-03-23T03:24:55;5.00;;;2.50;;
29294;SDS011;16305;48.566;8.846;2023-03-23T03:27:22;4.50;;;2.30;;
29294;SDS011;16305;48.566;8.846;2023-03-23T03:29:51;2.60;;;2.33;;
29294;SDS011;16305;48.566;8.846;2023-03-23T03:32:22;3.10;;;2.27;;
29294;SDS011;16305;48.566;8.846;2023-03-23T03:34:55;3.53;;;2.50;;
29294;SDS011;16305;48.566;8.846;2023-03-23T03:37:23;2.77;;;2.00;;
29294;SDS011;16305;48.566;8.846;2023-03-23T03:39:49;4.17;;;2.50;;
29294;SDS011;16305;48.566;8.846;2023-03-23T03:42:16;2.60;;;2.40;;
29294;SDS011;16305;48.566;8.846;2023-03-23T03:44:41;2.63;;;2.13;;
29294;SDS011;16305;48.566;8.846;2023-03-23T03:47:07;4.50;;;2.30;;
29294;SDS011;16305;48.566;8.846;2023-03-23T03:49:32;2.67;;;2.17;;
29294;SDS011;16305;48.566;8.846;2023-03-23T03:51:58;1.97;;;1.87;;
29294;SDS011;16305;48.566;8.846;2023-03-23T03:54:23;3.67;;;2.00;;
29294;SDS011;16305;48.566;8.846;2023-03-23T03:56:49;3.27;;;2.27;;
29294;SDS011;16305;48.566;8.846;2023-03-23T03:59:16;1.93;;;1.80;;
29294;SDS011;16305;48.566;8.846;2023-03-23T04:01:42;3.07;;;2.00;;
29294;SDS011;16305;48.566;8.846;2023-03-23T04:04:07;2.67;;;1.90;;
29294;SDS011;16305;48.566;8.846;2023-03-23T04:06:33;3.20;;;1.87;;
29294;SDS011;16305;48.566;8.846;2023-03-23T04:09:01;2.07;;;1.70;;
29294;SDS011;16305;48.566;8.846;2023-03-23T04:11:30;4.23;;;2.00;;
29294;SDS011;16305;48.566;8.846;2023-03-23T04:13:57;2.80;;;2.03;;
29294;SDS011;16305;48.566;8.846;2023-03-23T04:16:22;2.10;;;1.67;;
29294;SDS011;16305;48.566;8.846;2023-03-23T04:18:48;4.83;;;2.10;;
29294;SDS011;16305;48.566;8.846;2023-03-23T04:21:14;2.60;;;2.13;;
29294;SDS011;16305;48.566;8.846;2023-03-23T04:23:40;3.53;;;2.13;;
29294;SDS011;16305;48.566;8.846;2023-03-23T04:26:06;2.70;;;2.03;;
29294;SDS011;16305;48.566;8.846;2023-03-23T04:28:32;7.17;;;2.17;;
29294;SDS011;16305;48.566;8.846;2023-03-23T04:30:58;2.70;;;2.17;;
29294;SDS011;16305;48.566;8.846;2023-03-23T04:33:25;4.27;;;2.27;;
29294;SDS011;16305;48.566;8.846;2023-03-23T04:35:53;2.40;;;2.20;;
29294;SDS011;16305;48.566;8.846;2023-03-23T04:38:20;3.43;;;2.17;;
29294;SDS011;16305;48.566;8.846;2023-03-23T04:40:48;4.00;;;1.83;;
29294;SDS011;16305;48.566;8.846;2023-03-23T04:43:21;4.23;;;2.10;;
29294;SDS011;16305;48.566;8.846;2023-03-23T04:45:52;2.87;;;1.80;;
29294;SDS011;16305;48.566;8.846;2023-03-23T04:48:21;2.23;;;1.97;;
29294;SDS011;16305;48.566;8.846;2023-03-23T04:50:48;2.43;;;2.00;;
29294;SDS011;16305;48.566;8.846;2023-03-23T04:53:15;4.03;;;2.10;;
29294;SDS011;16305;48.566;8.846;2023-03-23T04:55:42;2.30;;;1.80;;
29294;SDS011;16305;48.566;8.846;2023-03-23T04:58:08;3.40;;;2.10;;
29294;SDS011;16305;48.566;8.846;2023-03-23T05:00:35;2.40;;;2.20;;
29294;SDS011;16305;48.566;8.846;2023-03-23T05:03:01;2.87;;;2.20;;
29294;SDS011;16305;48.566;8.846;2023-03-23T05:05:27;2.83;;;1.97;;
29294;SDS011;16305;48.566;8.846;2023-03-23T05:07:55;2.13;;;1.90;;
29294;SDS011;16305;48.566;8.846;2023-03-23T05:10:21;2.10;;;1.80;;
29294;SDS011;16305;48.566;8.846;2023-03-23T05:12:47;4.87;;;2.00;;
29294;SDS011;16305;48.566;8.846;2023-03-23T05:15:14;2.47;;;2.13;;
29294;SDS011;16305;48.566;8.846;2023-03-23T05:17:41;3.30;;;1.80;;
29294;SDS011;16305;48.566;8.846;2023-03-23T05:20:09;4.80;;;2.13;;
29294;SDS011;16305;48.566;8.846;2023-03-23T05:22:37;2.67;;;2.07;;
29294;SDS011;16305;48.566;8.846;2023-03-23T05:25:04;3.33;;;2.10;;
29294;SDS011;16305;48.566;8.846;2023-03-23T05:27:31;3.10;;;2.00;;
29294;SDS011;16305;48.566;8.846;2023-03-23T05:29:57;2.77;;;2.10;;
29294;SDS011;16305;48.566;8.846;2023-03-23T05:32:24;3.73;;;2.10;;
29294;SDS011;16305;48.566;8.846;2023-03-23T05:34:57;3.13;;;2.40;;
29294;SDS011;16305;48.566;8.846;2023-03-23T05:37:24;4.23;;;2.10;;
29294;SDS011;16305;48.566;8.846;2023-03-23T05:39:51;2.30;;;2.10;;
29294;SDS011;16305;48.566;8.846;2023-03-23T05:42:19;2.40;;;2.20;;
29294;SDS011;16305;48.566;8.846;2023-03-23T05:44:45;5.33;;;2.70;;
29294;SDS011;16305;48.566;8.846;2023-03-23T05:47:11;2.90;;;2.43;;
29294;SDS011;16305;48.566;8.846;2023-03-23T05:49:38;4.20;;;2.50;;
29294;SDS011;16305;48.566;8.846;2023-03-23T05:52:03;5.03;;;2.30;;
29294;SDS011;16305;48.566;8.846;2023-03-23T05:54:29;6.03;;;3.03;;
29294;SDS011;16305;48.566;8.846;2023-03-23T05:56:54;3.00;;;2.37;;
29294;SDS011;16305;48.566;8.846;2023-03-23T05:59:20;3.53;;;2.50;;
29294;SDS011;16305;48.566;8.846;2023-03-23T06:01:46;5.87;;;2.53;;
29294;SDS011;16305;48.566;8.846;2023-03-23T06:04:11;4.77;;;2.90;;
29294;SDS011;16305;48.566;8.846;2023-03-23T06:06:38;6.03;;;4.17;;
29294;SDS011;16305;48.566;8.846;2023-03-23T06:09:04;4.20;;;2.87;;
29294;SDS011;16305;48.566;8.846;2023-03-23T06:11:30;5.07;;;2.50;;
29294;SDS011;16305;48.566;8.846;2023-03-23T06:13:55;4.47;;;2.37;;
29294;SDS011;16305;48.566;8.846;2023-03-23T06:16:21;2.63;;;2.23;;
29294;SDS011;16305;48.566;8.846;2023-03-23T06:18:47;4.17;;;2.50;;
29294;SDS011;16305;48.566;8.846;2023-03-23T06:21:13;3.10;;;2.30;;
29294;SDS011;16305;48.566;8.846;2023-03-23T06:23:39;2.53;;;2.33;;
29294;SDS011;16305;48.566;8.846;2023-03-23T06:26:05;3.17;;;2.10;;
29294;SDS011;16305;48.566;8.846;2023-03-23T06:28:32;3.83;;;2.43;;
29294;SDS011;16305;48.566;8.846;2023-03-23T06:30:59;3.90;;;2.70;;
29294;SDS011;16305;48.566;8.846;2023-03-23T06:33:26;4.20;;;2.27;;
29294;SDS011;16305;48.566;8.846;2023-03-23T06:35:52;3.47;;;2.33;;
29294;SDS011;16305;48.566;8.846;2023-03-23T06:38:17;3.03;;;2.07;;
29294;SDS011;16305;48.566;8.846;2023-03-23T06:40:43;3.67;;;2.37;;
29294;SDS011;16305;48.566;8.846;2023-03-23T06:43:11;4.27;;;2.50;;
29294;SDS011;16305;48.566;8.846;2023-03-23T06:45:37;3.37;;;2.50;;
29294;SDS011;16305;48.566;8.846;2023-03-23T06:48:03;2.57;;;2.00;;
29294;SDS011;16305;48.566;8.846;2023-03-23T06:50:29;4.23;;;2.50;;
29294;SDS011;16305;48.566;8.846;2023-03-23T06:52:54;4.30;;;2.60;;
29294;SDS011;16305;48.566;8.846;2023-03-23T06:55:20;3.37;;;2.30;;
29294;SDS011;16305;48.566;8.846;2023-03-23T06:57:47;3.00;;;2.50;;
29294;SDS011;16305;48.566;8.846;2023-03-23T07:00:12;4.40;;;2.80;;
29294;SDS011;16305;48.566;8.846;2023-03-23T07:02:39;3.20;;;2.27;;
29294;SDS011;16305;48.566;8.846;2023-03-23T07:05:05;4.90;;;2.53;;
29294;SDS011;16305;48.566;8.846;2023-03-23T07:07:32;3.87;;;2.67;;
29294;SDS011;16305;48.566;8.846;2023-03-23T07:09:58;6.23;;;2.77;;
29294;SDS011;16305;48.566;8.846;2023-03-23T07:12:23;5.57;;;3.37;;
29294;SDS011;16305;48.566;8.846;2023-03-23T07:14:49;6.70;;;4.70;;
29294;SDS011;16305;48.566;8.846;2023-03-23T07:17:15;5.57;;;4.40;;
29294;SDS011;16305;48.566;8.846;2023-03-23T07:19:40;4.33;;;3.93;;
29294;SDS011;16305;48.566;8.846;2023-03-23T07:22:06;5.57;;;3.20;;
29294;SDS011;16305;48.566;8.846;2023-03-23T07:24:32;4.27;;;3.13;;
29294;SDS011;16305;48.566;8.846;2023-03-23T07:26:59;6.57;;;4.17;;
29294;SDS011;16305;48.566;8.846;2023-03-23T07:29:25;7.80;;;3.93;;
29294;SDS011;16305;48.566;8.846;2023-03-23T07:31:51;5.60;;;3.90;;
29294;SDS011;16305;48.566;8.846;2023-03-23T07:34:17;9.93;;;4.63;;
29294;SDS011;16305;48.566;8.846;2023-03-23T07:36:44;8.10;;;5.07;;
29294;SDS011;16305;48.566;8.846;2023-03-23T07:39:10;8.60;;;5.30;;
29294;SDS011;16305;48.566;8.846;2023-03-23T07:41:36;6.57;;;3.67;;
29294;SDS011;16305;48.566;8.846;2023-03-23T07:44:02;5.87;;;2.57;;
29294;SDS011;16305;48.566;8.846;2023-03-23T07:46:28;4.47;;;2.67;;
29294;SDS011;16305;48.566;8.846;2023-03-23T07:48:54;7.93;;;2.97;;
29294;SDS011;16305;48.566;8.846;2023-03-23T07:51:21;4.63;;;2.90;;
29294;SDS011;16305;48.566;8.846;2023-03-23T07:53:47;5.33;;;3.23;;
29294;SDS011;16305;48.566;8.846;2023-03-23T07:56:13;6.17;;;3.40;;
29294;SDS011;16305;48.566;8.846;2023-03-23T07:58:40;5.20;;;3.77;;
29294;SDS011;16305;48.566;8.846;2023-03-23T08:01:06;6.93;;;3.20;;
29294;SDS011;16305;48.566;8.846;2023-03-23T08:03:32;3.83;;;3.00;;
29294;SDS011;16305;48.566;8.846;2023-03-23T08:06:00;4.37;;;2.80;;
29294;SDS011;16305;48.566;8.846;2023-03-23T08:08:26;5.33;;;2.87;;
29294;SDS011;16305;48.566;8.846;2023-03-23T08:10:51;4.03;;;1.83;;
29294;SDS011;16305;48.566;8.846;2023-03-23T08:13:17;3.93;;;2.03;;
29294;SDS011;16305;48.566;8.846;2023-03-23T08:15:45;2.87;;;2.07;;
29294;SDS011;16305;48.566;8.846;2023-03-23T08:18:10;3.10;;;1.93;;
29294;SDS011;16305;48.566;8.846;2023-03-23T08:20:36;6.40;;;2.03;;
29294;SDS011;16305;48.566;8.846;2023-03-23T08:23:02;2.10;;;1.57;;
29294;SDS011;16305;48.566;8.846;2023-03-23T08:25:28;1.93;;;1.73;;
29294;SDS011;16305;48.566;8.846;2023-03-23T08:27:59;3.83;;;1.90;;
29294;SDS011;16305;48.566;8.846;2023-03-23T08:30:26;2.43;;;1.90;;
29294;SDS011;16305;48.566;8.846;2023-03-23T08:32:54;3.87;;;1.77;;
29294;SDS011;16305;48.566;8.846;2023-03-23T08:35:25;4.53;;;2.10;;
29294;SDS011;16305;48.566;8.846;2023-03-23T08:37:53;3.23;;;2.00;;
29294;SDS011;16305;48.566;8.846;2023-03-23T08:40:20;5.20;;;1.80;;
29294;SDS011;16305;48.566;8.846;2023-03-23T08:42:48;3.33;;;2.27;;
29294;SDS011;16305;48.566;8.846;2023-03-23T08:45:17;3.60;;;1.80;;
29294;SDS011;16305;48.566;8.846;2023-03-23T08:47:44;2.30;;;2.10;;
29294;SDS011;16305;48.566;8.846;2023-03-23T08:50:15;2.50;;;1.73;;
29294;SDS011;16305;48.566;8.846;2023-03-23T08:52:41;2.33;;;1.83;;
29294;SDS011;16305;48.566;8.846;2023-03-23T08:55:08;4.00;;;2.00;;
29294;SDS011;16305;48.566;8.846;2023-03-23T08:57:35;3.87;;;1.77;;
29294;SDS011;16305;48.566;8.846;2023-03-23T09:00:05;6.73;;;1.80;;
29294;SDS011;16305;48.566;8.846;2023-03-23T09:02:42;2.00;;;1.77;;
29294;SDS011;16305;48.566;8.846;2023-03-23T09:05:09;2.40;;;2.03;;
29294;SDS011;16305;48.566;8.846;2023-03-23T09:07:36;3.57;;;2.30;;
29294;SDS011;16305;48.566;8.846;2023-03-23T09:10:03;2.20;;;2.00;;
29294;SDS011;16305;48.566;8.846;2023-03-23T09:12:29;4.47;;;2.67;;
29294;SDS011;16305;48.566;8.846;2023-03-23T09:14:55;2.60;;;2.10;;
29294;SDS011;16305;48.566;8.846;2023-03-23T09:17:20;3.47;;;2.00;;
29294;SDS011;16305;48.566;8.846;2023-03-23T09:19:46;4.17;;;2.23;;
29294;SDS011;16305;48.566;8.846;2023-03-23T09:22:11;2.87;;;2.43;;
29294;SDS011;16305;48.566;8.846;2023-03-23T09:24:37;4.37;;;2.27;;
29294;SDS011;16305;48.566;8.846;2023-03-23T09:27:03;3.10;;;2.40;;
29294;SDS011;16305;48.566;8.846;2023-03-23T09:29:29;2.30;;;2.10;;
29294;SDS011;16305;48.566;8.846;2023-03-23T09:31:55;3.20;;;2.17;;
29294;SDS011;16305;48.566;8.846;2023-03-23T09:34:21;2.90;;;2.30;;
29294;SDS011;16305;48.566;8.846;2023-03-23T09:36:47;3.00;;;2.50;;
29294;SDS011;16305;48.566;8.846;2023-03-23T09:39:13;2.37;;;2.17;;
29294;SDS011;16305;48.566;8.846;2023-03-23T09:41:54;2.40;;;2.10;;
29294;SDS011;16305;48.566;8.846;2023-03-23T09:44:51;4.53;;;2.80;;
29294;SDS011;16305;48.566;8.846;2023-03-23T09:50:16;5.63;;;2.47;;
29294;SDS011;16305;48.566;8.846;2023-03-23T09:52:54;2.73;;;2.20;;
29294;SDS011;16305;48.566;8.846;2023-03-23T09:55:22;4.03;;;2.37;;
29294;SDS011;16305;48.566;8.846;2023-03-23T10:03:37;3.30;;;2.20;;
29294;SDS011;16305;48.566;8.846;2023-03-23T10:06:07;2.50;;;2.03;;
29294;SDS011;16305;48.566;8.846;2023-03-23T10:08:38;3.17;;;2.10;;
29294;SDS011;16305;48.566;8.846;2023-03-23T10:11:23;5.33;;;2.20;;
29294;SDS011;16305;48.566;8.846;2023-03-23T10:14:07;3.07;;;2.13;;
29294;SDS011;16305;48.566;8.846;2023-03-23T10:17:26;3.60;;;2.37;;
29294;SDS011;16305;48.566;8.846;2023-03-23T10:22:40;4.03;;;2.50;;
29294;SDS011;16305;48.566;8.846;2023-03-23T10:27:44;2.53;;;2.20;;
29294;SDS011;16305;48.566;8.846;2023-03-23T10:30:30;3.17;;;2.50;;
29294;SDS011;16305;48.566;8.846;2023-03-23T10:33:03;2.90;;;2.40;;
29294;SDS011;16305;48.566;8.846;2023-03-23T10:35:35;2.97;;;2.40;;
29294;SDS011;16305;48.566;8.846;2023-03-23T10:38:26;7.23;;;2.70;;
29294;SDS011;16305;48.566;8.846;2023-03-23T10:41:05;4.33;;;2.80;;
29294;SDS011;16305;48.566;8.846;2023-03-23T10:43:36;4.37;;;3.07;;
29294;SDS011;16305;48.566;8.846;2023-03-23T10:46:22;3.70;;;2.70;;
29294;SDS011;16305;48.566;8.846;2023-03-23T10:48:54;3.03;;;2.20;;
29294;SDS011;16305;48.566;8.846;2023-03-23T10:51:22;6.43;;;2.70;;
29294;SDS011;16305;48.566;8.846;2023-03-23T10:53:56;2.20;;;1.93;;
29294;SDS011;16305;48.566;8.846;2023-03-23T10:58:50;2.80;;;2.43;;
29294;SDS011;16305;48.566;8.846;2023-03-23T11:01:18;3.23;;;2.37;;
29294;SDS011;16305;48.566;8.846;2023-03-23T11:03:48;5.70;;;1.90;;
29294;SDS011;16305;48.566;8.846;2023-03-23T11:06:22;3.30;;;2.47;;
29294;SDS011;16305;48.566;8.846;2023-03-23T11:08:54;5.47;;;2.40;;
29294;SDS011;16305;48.566;8.846;2023-03-23T11:11:30;3.07;;;2.00;;
29294;SDS011;16305;48.566;8.846;2023-03-23T11:14:13;3.70;;;1.87;;
29294;SDS011;16305;48.566;8.846;2023-03-23T11:16:58;5.50;;;2.00;;
29294;SDS011;16305;48.566;8.846;2023-03-23T11:19:29;3.63;;;1.93;;
29294;SDS011;16305;48.566;8.846;2023-03-23T11:22:24;2.17;;;1.93;;
29294;SDS011;16305;48.566;8.846;2023-03-23T11:24:53;2.83;;;1.83;;
29294;SDS011;16305;48.566;8.846;2023-03-23T11:27:28;4.10;;;2.00;;
29294;SDS011;16305;48.566;8.846;2023-03-23T11:29:55;3.10;;;2.00;;
29294;SDS011;16305;48.566;8.846;2023-03-23T11:32:26;3.90;;;2.20;;
29294;SDS011;16305;48.566;8.846;2023-03-23T11:34:54;1.97;;;1.77;;
29294;SDS011;16305;48.566;8.846;2023-03-23T11:37:32;5.00;;;2.20;;
29294;SDS011;16305;48.566;8.846;2023-03-23T11:45:13;2.97;;;2.17;;
29294;SDS011;16305;48.566;8.846;2023-03-23T11:56:35;1.93;;;1.73;;
29294;SDS011;16305;48.566;8.846;2023-03-23T11:59:12;2.50;;;1.90;;
29294;SDS011;16305;48.566;8.846;2023-03-23T12:01:47;3.50;;;2.00;;
29294;SDS011;16305;48.566;8.846;2023-03-23T12:18:18;2.87;;;2.03;;
29294;SDS011;16305;48.566;8.846;2023-03-23T12:21:12;4.23;;;1.80;;
29294;SDS011;16305;48.566;8.846;2023-03-23T12:40:02;3.97;;;1.97;;
29294;SDS011;16305;48.566;8.846;2023-03-23T12:42:50;2.47;;;1.90;;
29294;SDS011;16305;48.566;8.846;2023-03-23T12:48:31;2.33;;;1.77;;
29294;SDS011;16305;48.566;8.846;2023-03-23T12:56:44;2.17;;;1.97;;
29294;SDS011;16305;48.566;8.846;2023-03-23T13:02:16;2.00;;;1.70;;
29294;SDS011;16305;48.566;8.846;2023-03-23T13:04:50;3.93;;;2.27;;
29294;SDS011;16305;48.566;8.846;2023-03-23T13:07:28;3.47;;;1.80;;
29294;SDS011;16305;48.566;8.846;2023-03-23T13:10:15;2.77;;;2.10;;
29294;SDS011;16305;48.566;8.846;2023-03-23T13:12:44;2.37;;;1.90;;
29294;SDS011;16305;48.566;8.846;2023-03-23T13:18:02;2.07;;;1.90;;
29294;SDS011;16305;48.566;8.846;2023-03-23T13:23:22;2.53;;;1.80;;
29294;SDS011;16305;48.566;8.846;2023-03-23T13:26:18;2.10;;;1.90;;
29294;SDS011;16305;48.566;8.846;2023-03-23T13:29:01;2.03;;;1.83;;
29294;SDS011;16305;48.566;8.846;2023-03-23T13:31:39;3.43;;;2.10;;
29294;SDS011;16305;48.566;8.846;2023-03-23T13:36:53;4.00;;;2.03;;
29294;SDS011;16305;48.566;8.846;2023-03-23T13:44:54;7.17;;;2.93;;
29294;SDS011;16305;48.566;8.846;2023-03-23T13:47:28;3.30;;;2.43;;
29294;SDS011;16305;48.566;8.846;2023-03-23T13:50:01;4.23;;;2.20;;
29294;SDS011;16305;48.566;8.846;2023-03-23T14:03:01;2.37;;;2.03;;
29294;SDS011;16305;48.566;8.846;2023-03-23T14:05:34;2.37;;;2.10;;
29294;SDS011;16305;48.566;8.846;2023-03-23T14:08:02;4.13;;;2.10;;
29294;SDS011;16305;48.566;8.846;2023-03-23T14:10:35;3.13;;;2.00;;
29294;SDS011;16305;48.566;8.846;2023-03-23T14:13:01;3.20;;;2.20;;
29294;SDS011;16305;48.566;8.846;2023-03-23T14:15:29;4.33;;;2.10;;
29294;SDS011;16305;48.566;8.846;2023-03-23T14:17:56;2.13;;;1.90;;
29294;SDS011;16305;48.566;8.846;2023-03-23T14:20:26;2.60;;;1.60;;
29294;SDS011;16305;48.566;8.846;2023-03-23T14:22:57;3.03;;;2.00;;
29294;SDS011;16305;48.566;8.846;2023-03-23T14:25:26;3.13;;;1.87;;
29294;SDS011;16305;48.566;8.846;2023-03-23T14:27:54;3.37;;;2.07;;
29294;SDS011;16305;48.566;8.846;2023-03-23T14:30:21;2.40;;;2.03;;
29294;SDS011;16305;48.566;8.846;2023-03-23T14:32:48;2.57;;;1.90;;
29294;SDS011;16305;48.566;8.846;2023-03-23T14:35:26;3.40;;;2.40;;
29294;SDS011;16305;48.566;8.846;2023-03-23T14:37:54;2.10;;;1.90;;
29294;SDS011;16305;48.566;8.846;2023-03-23T14:40:21;2.50;;;2.03;;
29294;SDS011;16305;48.566;8.846;2023-03-23T14:42:47;1.80;;;1.57;;
29294;SDS011;16305;48.566;8.846;2023-03-23T14:45:16;3.07;;;1.80;;
29294;SDS011;16305;48.566;8.846;2023-03-23T14:47:54;4.03;;;1.90;;
29294;SDS011;16305;48.566;8.846;2023-03-23T14:53:18;4.30;;;2.40;;
29294;SDS011;16305;48.566;8.846;2023-03-23T14:55:50;2.60;;;2.07;;
29294;SDS011;16305;48.566;8.846;2023-03-23T14:58:17;2.60;;;2.00;;
29294;SDS011;16305;48.566;8.846;2023-03-23T15:00:52;2.63;;;2.30;;
29294;SDS011;16305;48.566;8.846;2023-03-23T15:03:23;2.40;;;1.93;;
29294;SDS011;16305;48.566;8.846;2023-03-23T15:05:51;2.93;;;2.30;;
29294;SDS011;16305;48.566;8.846;2023-03-23T15:08:25;2.80;;;1.87;;
29294;SDS011;16305;48.566;8.846;2023-03-23T15:11:06;2.53;;;1.93;;
29294;SDS011;16305;48.566;8.846;2023-03-23T15:13:36;3.53;;;2.13;;
29294;SDS011;16305;48.566;8.846;2023-03-23T15:16:03;2.13;;;1.90;;
29294;SDS011;16305;48.566;8.846;2023-03-23T15:18:33;2.27;;;2.00;;
29294;SDS011;16305;48.566;8.846;2023-03-23T15:21:10;2.90;;;2.10;;
29294;SDS011;16305;48.566;8.846;2023-03-23T15:23:45;2.63;;;1.90;;
29294;SDS011;16305;48.566;8.846;2023-03-23T15:26:17;3.93;;;2.20;;
29294;SDS011;16305;48.566;8.846;2023-03-23T15:28:50;4.03;;;2.40;;
29294;SDS011;16305;48.566;8.846;2023-03-23T15:31:29;4.10;;;1.87;;
29294;SDS011;16305;48.566;8.846;2023-03-23T15:33:56;2.97;;;1.90;;
29294;SDS011;16305;48.566;8.846;2023-03-23T15:36:26;2.37;;;1.87;;
29294;SDS011;16305;48.566;8.846;2023-03-23T15:38:57;3.17;;;2.10;;
29294;SDS011;16305;48.566;8.846;2023-03-23T15:41:24;2.30;;;2.03;;
29294;SDS011;16305;48.566;8.846;2023-03-23T15:43:52;2.77;;;2.13;;
29294;SDS011;16305;48.566;8.846;2023-03-23T15:46:23;2.73;;;1.93;;
29294;SDS011;16305;48.566;8.846;2023-03-23T15:48:52;2.30;;;1.90;;
29294;SDS011;16305;48.566;8.846;2023-03-23T15:51:20;2.83;;;2.50;;
29294;SDS011;16305;48.566;8.846;2023-03-23T15:53:48;2.30;;;2.10;;
29294;SDS011;16305;48.566;8.846;2023-03-23T15:56:15;2.77;;;2.07;;
29294;SDS011;16305;48.566;8.846;2023-03-23T15:58:41;3.20;;;1.90;;
29294;SDS011;16305;48.566;8.846;2023-03-23T16:01:11;2.40;;;2.13;;
29294;SDS011;16305;48.566;8.846;2023-03-23T16:03:42;2.37;;;1.83;;
29294;SDS011;16305;48.566;8.846;2023-03-23T16:06:15;2.73;;;2.00;;
29294;SDS011;16305;48.566;8.846;2023-03-23T16:08:42;2.37;;;2.10;;
29294;SDS011;16305;48.566;8.846;2023-03-23T16:11:12;2.37;;;2.00;;
29294;SDS011;16305;48.566;8.846;2023-03-23T16:13:38;2.37;;;2.00;;
29294;SDS011;16305;48.566;8.846;2023-03-23T16:16:05;2.00;;;1.80;;
29294;SDS011;16305;48.566;8.846;2023-03-23T16:18:37;5.53;;;1.80;;
29294;SDS011;16305;48.566;8.846;2023-03-23T16:21:03;4.23;;;2.30;;
29294;SDS011;16305;48.566;8.846;2023-03-23T16:23:29;2.37;;;1.90;;
29294;SDS011;16305;48.566;8.846;2023-03-23T16:25:54;2.30;;;2.10;;
29294;SDS011;16305;48.566;8.846;2023-03-23T16:28:20;3.13;;;2.47;;
29294;SDS011;16305;48.566;8.846;2023-03-23T16:30:45;2.60;;;2.30;;
29294;SDS011;16305;48.566;8.846;2023-03-23T16:33:11;2.00;;;1.80;;
29294;SDS011;16305;48.566;8.846;2023-03-23T16:35:37;4.50;;;2.40;;
29294;SDS011;16305;48.566;8.846;2023-03-23T16:38:03;2.87;;;2.30;;
29294;SDS011;16305;48.566;8.846;2023-03-23T16:40:29;3.93;;;2.30;;
29294;SDS011;16305;48.566;8.846;2023-03-23T16:42:54;2.40;;;2.07;;
29294;SDS011;16305;48.566;8.846;2023-03-23T16:45:20;6.03;;;2.63;;
29294;SDS011;16305;48.566;8.846;2023-03-23T16:47:47;3.80;;;2.70;;
29294;SDS011;16305;48.566;8.846;2023-03-23T16:50:14;3.80;;;2.80;;
29294;SDS011;16305;48.566;8.846;2023-03-23T16:52:44;7.30;;;2.90;;
29294;SDS011;16305;48.566;8.846;2023-03-23T16:55:11;4.00;;;2.87;;
29294;SDS011;16305;48.566;8.846;2023-03-23T16:57:38;3.73;;;2.97;;
29294;SDS011;16305;48.566;8.846;2023-03-23T17:00:05;4.57;;;3.10;;
29294;SDS011;16305;48.566;8.846;2023-03-23T17:02:33;4.83;;;3.57;;